Time;durP1;ratioP1;P1;durP2;ratioP2;P2;SDS_P1;SDS_P2;PMS_P1;PMS_P2;Temp;Humidity;BMP_temperature;BMP_pressure;BME280_temperature;BME280_humidity;BME280_pressure;Samples;Min_cycle;Max_cycle;Signal;HPM_P1;HPM_P2
2023/08/25 00:01:27;;;;;;;4.17;3.47;;;;;;;;;;6156317;23;21013;-69
2023/08/25 00:03:54;;;;;;;3.63;3.43;;;;;;;;;;6156693;23;20402;-69
2023/08/25 00:06:21;;;;;;;3.93;3.73;;;;;;;;;;6156811;23;20482;-69
2023/08/25 00:08:48;;;;;;;7.57;5.03;;;;;;;;;;6156668;23;20406;-69
2023/08/25 00:11:15;;;;;;;5.97;4.97;;;;;;;;;;6156740;23;20414;-68
2023/08/25 00:13:42;;;;;;;5.00;4.60;;;;;;;;;;6156579;23;20489;-68
2023/08/25 00:16:09;;;;;;;4.77;4.43;;;;;;;;;;6156717;23;20403;-68
2023/08/25 00:18:38;;;;;;;4.53;4.17;;;;;;;;;;6156576;23;20403;-68
2023/08/25 00:21:05;;;;;;;4.83;4.53;;;;;;;;;;6156521;23;20438;-68
2023/08/25 00:23:32;;;;;;;5.17;4.70;;;;;;;;;;6156404;23;20418;-68
2023/08/25 00:25:59;;;;;;;5.10;4.80;;;;;;;;;;6156372;23;20485;-68
2023/08/25 00:28:26;;;;;;;5.20;4.80;;;;;;;;;;6156631;23;20407;-68
2023/08/25 00:30:54;;;;;;;4.70;4.40;;;;;;;;;;6156778;23;20418;-68
2023/08/25 00:33:21;;;;;;;5.33;4.93;;;;;;;;;;6156455;23;20441;-68
2023/08/25 00:35:50;;;;;;;6.03;5.53;;;;;;;;;;6156479;23;20407;-68
2023/08/25 00:38:16;;;;;;;5.40;5.10;;;;;;;;;;6156567;23;20499;-68
2023/08/25 00:40:43;;;;;;;5.47;5.07;;;;;;;;;;6156512;23;20490;-68
2023/08/25 00:43:10;;;;;;;5.90;5.50;;;;;;;;;;6156204;23;20529;-68
2023/08/25 00:45:41;;;;;;;5.70;5.30;;;;;;;;;;6156365;23;20489;-68
2023/08/25 00:48:08;;;;;;;6.90;5.67;;;;;;;;;;6156419;23;20887;-68
2023/08/25 00:50:35;;;;;;;5.87;5.37;;;;;;;;;;6155936;23;20768;-69
2023/08/25 00:53:05;;;;;;;6.63;5.57;;;;;;;;;;6156214;23;20502;-68
2023/08/25 00:55:32;;;;;;;5.50;5.00;;;;;;;;;;6156649;23;20403;-68
2023/08/25 00:57:59;;;;;;;6.27;5.77;;;;;;;;;;6156282;23;20485;-68
2023/08/25 01:00:26;;;;;;;5.20;4.90;;;;;;;;;;6156289;23;20518;-68
2023/08/25 01:02:54;;;;;;;6.07;5.60;;;;;;;;;;6156065;23;20517;-68
2023/08/25 01:05:21;;;;;;;5.80;5.40;;;;;;;;;;6156244;23;20886;-68
2023/08/25 01:07:49;;;;;;;5.50;5.10;;;;;;;;;;6156219;23;20407;-68
2023/08/25 01:10:17;;;;;;;6.70;4.97;;;;;;;;;;6156238;23;20498;-69
2023/08/25 01:12:56;;;;;;;4.90;4.63;;;;;;;;;;6156111;23;20438;-68
2023/08/25 01:15:27;;;;;;;5.73;5.30;;;;;;;;;;6156277;23;20794;-68
2023/08/25 01:17:58;;;;;;;5.23;4.80;;;;;;;;;;6156144;23;20477;-68
2023/08/25 01:20:26;;;;;;;5.20;4.80;;;;;;;;;;6156183;23;20502;-69
2023/08/25 01:22:59;;;;;;;5.40;4.90;;;;;;;;;;6155896;23;20767;-69
2023/08/25 01:25:28;;;;;;;6.00;5.60;;;;;;;;;;6156078;23;20406;-69
2023/08/25 01:27:56;;;;;;;5.57;5.20;;;;;;;;;;6156041;23;20493;-68
2023/08/25 01:30:24;;;;;;;5.30;4.90;;;;;;;;;;6155694;23;20474;-69
2023/08/25 01:32:51;;;;;;;5.77;5.27;;;;;;;;;;6155657;23;20494;-68
2023/08/25 01:35:19;;;;;;;5.20;4.90;;;;;;;;;;6155805;23;20411;-68
2023/08/25 01:37:52;;;;;;;5.57;5.17;;;;;;;;;;6155688;23;20727;-69
2023/08/25 01:40:22;;;;;;;6.10;5.57;;;;;;;;;;6156042;23;20478;-68
2023/08/25 01:42:52;;;;;;;5.70;5.20;;;;;;;;;;6155914;23;20786;-68
2023/08/25 01:45:19;;;;;;;6.07;5.67;;;;;;;;;;6155978;23;20445;-68
2023/08/25 01:47:47;;;;;;;9.30;5.00;;;;;;;;;;6155944;23;20494;-69
2023/08/25 01:50:15;;;;;;;6.40;5.77;;;;;;;;;;6155486;23;20458;-68
2023/08/25 01:52:42;;;;;;;5.30;5.00;;;;;;;;;;6155794;23;20502;-69
2023/08/25 01:55:09;;;;;;;5.70;5.17;;;;;;;;;;6155871;23;20402;-68
2023/08/25 01:57:37;;;;;;;5.40;5.10;;;;;;;;;;6155910;23;20490;-68
2023/08/25 02:00:05;;;;;;;5.90;4.90;;;;;;;;;;6155847;23;20409;-68
2023/08/25 02:02:32;;;;;;;5.67;5.27;;;;;;;;;;6155728;23;20526;-68
2023/08/25 02:04:59;;;;;;;5.37;5.00;;;;;;;;;;6155784;23;20489;-68
2023/08/25 02:07:26;;;;;;;6.80;5.60;;;;;;;;;;6155773;23;20780;-68
2023/08/25 02:09:55;;;;;;;5.37;4.90;;;;;;;;;;6155866;23;20493;-68
2023/08/25 02:12:22;;;;;;;5.00;4.60;;;;;;;;;;6155790;23;20414;-68
2023/08/25 02:14:49;;;;;;;5.33;5.00;;;;;;;;;;6155798;23;20518;-68
2023/08/25 02:17:17;;;;;;;5.57;5.10;;;;;;;;;;6155649;23;20434;-68
2023/08/25 02:19:44;;;;;;;7.73;5.60;;;;;;;;;;6155372;23;20989;-68
2023/08/25 02:22:11;;;;;;;5.73;5.20;;;;;;;;;;6155661;23;20529;-68
2023/08/25 02:24:37;;;;;;;6.57;6.07;;;;;;;;;;6155717;23;20435;-68
2023/08/25 02:27:04;;;;;;;6.43;5.93;;;;;;;;;;6155766;23;20509;-68
2023/08/25 02:29:31;;;;;;;5.63;5.20;;;;;;;;;;6155745;23;20494;-68
2023/08/25 02:31:58;;;;;;;6.10;5.60;;;;;;;;;;6155650;23;20503;-68
2023/08/25 02:34:28;;;;;;;6.10;5.60;;;;;;;;;;6155649;23;20497;-68
2023/08/25 02:36:54;;;;;;;6.03;5.63;;;;;;;;;;6155656;23;20414;-68
2023/08/25 02:39:21;;;;;;;7.80;5.60;;;;;;;;;;6155660;23;20485;-68
2023/08/25 02:41:48;;;;;;;6.23;5.70;;;;;;;;;;6155508;23;20438;-68
2023/08/25 02:44:15;;;;;;;6.40;5.80;;;;;;;;;;6155577;23;20791;-68
2023/08/25 02:46:43;;;;;;;5.97;5.57;;;;;;;;;;6155650;23;20407;-69
2023/08/25 02:49:10;;;;;;;6.23;5.70;;;;;;;;;;6157186;23;20407;-69
2023/08/25 02:51:38;;;;;;;6.77;6.07;;;;;;;;;;6157121;23;20969;-68
2023/08/25 02:54:05;;;;;;;7.17;6.50;;;;;;;;;;6157394;23;20457;-68
2023/08/25 02:56:32;;;;;;;7.00;6.23;;;;;;;;;;6157401;23;20493;-68
2023/08/25 02:58:58;;;;;;;6.77;5.80;;;;;;;;;;6157370;23;20446;-68
2023/08/25 03:01:25;;;;;;;6.70;5.90;;;;;;;;;;6157409;23;20493;-68
2023/08/25 03:03:52;;;;;;;6.40;6.00;;;;;;;;;;6157206;23;20533;-68
2023/08/25 03:06:19;;;;;;;6.67;6.17;;;;;;;;;;6157376;23;20426;-68
2023/08/25 03:08:47;;;;;;;7.43;6.73;;;;;;;;;;6157354;23;20489;-68
2023/08/25 03:11:14;;;;;;;6.60;6.00;;;;;;;;;;6157267;23;20494;-68
2023/08/25 03:13:41;;;;;;;6.20;5.70;;;;;;;;;;6157409;23;20740;-68
2023/08/25 03:16:08;;;;;;;6.60;6.13;;;;;;;;;;6157153;23;20502;-68
2023/08/25 03:18:37;;;;;;;7.07;6.57;;;;;;;;;;6157140;23;20407;-68
2023/08/25 03:21:04;;;;;;;8.20;6.93;;;;;;;;;;6157090;23;20962;-68
2023/08/25 03:23:31;;;;;;;7.67;7.03;;;;;;;;;;6156939;23;20522;-68
2023/08/25 03:25:59;;;;;;;7.63;6.30;;;;;;;;;;6157060;23;20434;-68
2023/08/25 03:28:26;;;;;;;9.53;7.00;;;;;;;;;;6157060;23;20491;-68
2023/08/25 03:30:53;;;;;;;7.20;6.60;;;;;;;;;;6156853;23;20798;-68
2023/08/25 03:33:20;;;;;;;7.80;7.10;;;;;;;;;;6156795;23;20755;-68
2023/08/25 03:35:47;;;;;;;10.20;6.83;;;;;;;;;;6156851;23;20490;-68
2023/08/25 03:38:14;;;;;;;7.00;6.40;;;;;;;;;;6157046;23;20790;-68
2023/08/25 03:40:43;;;;;;;6.80;6.30;;;;;;;;;;6157024;23;20497;-68
2023/08/25 03:43:11;;;;;;;7.27;6.67;;;;;;;;;;6156701;23;20439;-68
2023/08/25 03:45:38;;;;;;;11.03;7.03;;;;;;;;;;6156973;23;20442;-68
2023/08/25 03:48:05;;;;;;;6.17;5.77;;;;;;;;;;6156949;23;20431;-68
2023/08/25 03:50:32;;;;;;;7.10;6.50;;;;;;;;;;6156449;23;20509;-68
2023/08/25 03:52:59;;;;;;;6.83;6.33;;;;;;;;;;6166371;23;20485;-68
2023/08/25 03:55:26;;;;;;;9.40;7.10;;;;;;;;;;6156875;23;20434;-68
2023/08/25 03:57:53;;;;;;;9.10;8.30;;;;;;;;;;6156807;23;20494;-68
2023/08/25 04:00:21;;;;;;;9.03;6.87;;;;;;;;;;6156032;23;20407;-68
2023/08/25 04:02:48;;;;;;;7.23;6.50;;;;;;;;;;6156611;23;20442;-68
2023/08/25 04:05:15;;;;;;;7.20;6.70;;;;;;;;;;6156737;23;20490;-68
2023/08/25 04:07:42;;;;;;;8.20;7.13;;;;;;;;;;6156743;23;20407;-68
2023/08/25 04:10:09;;;;;;;8.67;7.90;;;;;;;;;;6156717;23;20514;-68
2023/08/25 04:12:36;;;;;;;8.17;7.40;;;;;;;;;;6156589;23;20493;-68
2023/08/25 04:15:03;;;;;;;8.23;7.60;;;;;;;;;;6156214;23;20490;-68
2023/08/25 04:17:34;;;;;;;7.87;7.20;;;;;;;;;;6156698;23;20787;-68
2023/08/25 04:20:02;;;;;;;8.50;7.23;;;;;;;;;;6156593;23;20832;-68
2023/08/25 04:22:29;;;;;;;7.50;6.90;;;;;;;;;;6156494;23;20737;-68
2023/08/25 04:24:55;;;;;;;9.50;7.17;;;;;;;;;;6156437;23;20489;-68
2023/08/25 04:27:22;;;;;;;7.80;7.20;;;;;;;;;;6156551;23;20518;-68
2023/08/25 04:29:51;;;;;;;9.50;8.80;;;;;;;;;;6156573;23;20490;-68
2023/08/25 04:32:18;;;;;;;8.50;7.67;;;;;;;;;;6156446;23;20720;-68
2023/08/25 04:34:46;;;;;;;9.07;7.43;;;;;;;;;;6156315;23;20446;-68
2023/08/25 04:37:13;;;;;;;11.50;9.23;;;;;;;;;;6156445;23;20490;-68
2023/08/25 04:39:41;;;;;;;8.23;7.23;;;;;;;;;;6156026;23;20462;-68
2023/08/25 04:42:08;;;;;;;8.13;7.33;;;;;;;;;;6156248;23;20410;-68
2023/08/25 04:44:35;;;;;;;7.93;7.23;;;;;;;;;;6156330;23;20785;-68
2023/08/25 04:47:02;;;;;;;8.37;7.57;;;;;;;;;;6156324;23;20728;-68
2023/08/25 04:49:29;;;;;;;8.97;8.17;;;;;;;;;;6155923;23;20756;-68
2023/08/25 04:51:58;;;;;;;8.90;8.10;;;;;;;;;;6155958;23;20926;-68
2023/08/25 04:54:25;;;;;;;9.33;7.27;;;;;;;;;;6156149;23;20489;-68
2023/08/25 04:56:52;;;;;;;8.03;7.40;;;;;;;;;;6155916;23;20414;-68
2023/08/25 04:59:19;;;;;;;8.47;7.87;;;;;;;;;;6156293;23;20494;-68
2023/08/25 05:01:46;;;;;;;9.47;8.33;;;;;;;;;;6156466;23;20784;-69
2023/08/25 05:04:13;;;;;;;11.83;7.80;;;;;;;;;;6156108;23;20529;-69
2023/08/25 05:06:40;;;;;;;8.23;7.40;;;;;;;;;;6156155;23;20407;-69
2023/08/25 05:09:09;;;;;;;8.23;7.50;;;;;;;;;;6156117;23;20491;-69
2023/08/25 05:11:37;;;;;;;9.57;8.70;;;;;;;;;;6156001;23;20411;-69
2023/08/25 05:14:04;;;;;;;8.70;7.90;;;;;;;;;;6156103;23;20486;-69
2023/08/25 05:16:31;;;;;;;9.07;8.30;;;;;;;;;;6156058;23;20446;-69
2023/08/25 05:18:58;;;;;;;36.73;9.90;;;;;;;;;;6155652;23;20414;-69
2023/08/25 05:21:25;;;;;;;9.87;8.97;;;;;;;;;;6156156;23;20445;-69
2023/08/25 05:24:12;;;;;;;9.07;8.13;;;;;;;;;;6155886;23;20820;-69
2023/08/25 05:26:40;;;;;;;8.10;7.40;;;;;;;;;;6155615;23;20509;-69
2023/08/25 05:29:07;;;;;;;8.73;7.83;;;;;;;;;;6155991;23;20433;-69
2023/08/25 05:31:34;;;;;;;7.80;7.30;;;;;;;;;;6155895;23;20414;-69
2023/08/25 05:34:01;;;;;;;7.90;7.20;;;;;;;;;;6155896;23;20431;-69
2023/08/25 05:36:28;;;;;;;8.33;6.73;;;;;;;;;;6155599;23;20911;-69
2023/08/25 05:38:54;;;;;;;9.20;8.30;;;;;;;;;;6155976;23;20485;-69
2023/08/25 05:41:21;;;;;;;7.17;6.77;;;;;;;;;;6155962;23;20493;-70
2023/08/25 05:43:50;;;;;;;7.30;6.73;;;;;;;;;;6155780;23;20526;-69
2023/08/25 05:46:17;;;;;;;8.53;7.40;;;;;;;;;;6155791;23;20494;-69
2023/08/25 05:48:44;;;;;;;7.97;7.03;;;;;;;;;;6155458;23;20887;-70
2023/08/25 05:51:11;;;;;;;7.33;6.80;;;;;;;;;;6155450;23;20717;-69
2023/08/25 05:53:38;;;;;;;8.33;7.50;;;;;;;;;;6155681;23;20486;-69
2023/08/25 05:56:05;;;;;;;6.33;5.93;;;;;;;;;;6155593;23;20490;-69
2023/08/25 05:58:32;;;;;;;6.50;5.80;;;;;;;;;;6155909;23;20489;-69
2023/08/25 06:01:01;;;;;;;6.10;5.70;;;;;;;;;;6155818;23;20486;-69
2023/08/25 06:03:28;;;;;;;6.40;5.90;;;;;;;;;;6155570;23;20434;-69
2023/08/25 06:05:55;;;;;;;6.03;5.53;;;;;;;;;;6155721;23;20494;-69
2023/08/25 06:08:22;;;;;;;8.00;5.57;;;;;;;;;;6155699;23;20760;-70
2023/08/25 06:10:51;;;;;;;6.47;5.97;;;;;;;;;;6155188;23;20954;-69
2023/08/25 06:13:18;;;;;;;7.20;6.50;;;;;;;;;;6155729;23;20466;-70
2023/08/25 06:15:45;;;;;;;7.00;5.93;;;;;;;;;;6155405;23;20490;-69
2023/08/25 06:18:14;;;;;;;6.30;5.77;;;;;;;;;;6155499;23;20433;-69
2023/08/25 06:20:40;;;;;;;6.37;5.73;;;;;;;;;;6155296;23;20965;-69
2023/08/25 06:23:08;;;;;;;6.20;5.63;;;;;;;;;;6156515;23;20521;-69
2023/08/25 06:25:36;;;;;;;6.47;6.07;;;;;;;;;;6157590;23;20406;-68
2023/08/25 06:28:03;;;;;;;6.80;5.53;;;;;;;;;;6156951;23;20494;-69
2023/08/25 06:30:30;;;;;;;6.80;6.20;;;;;;;;;;6157644;23;20445;-69
2023/08/25 06:32:57;;;;;;;6.37;5.83;;;;;;;;;;6157555;23;20700;-69
2023/08/25 06:35:27;;;;;;;7.47;5.73;;;;;;;;;;6157082;23;21002;-68
2023/08/25 06:37:54;;;;;;;5.67;5.17;;;;;;;;;;6157454;23;20776;-69
2023/08/25 06:40:21;;;;;;;5.27;4.87;;;;;;;;;;6155790;23;20892;-68
2023/08/25 06:42:47;;;;;;;6.87;5.93;;;;;;;;;;6156153;23;20442;-69
2023/08/25 06:45:14;;;;;;;5.70;5.30;;;;;;;;;;6156814;23;20490;-69
2023/08/25 06:47:41;;;;;;;7.27;5.93;;;;;;;;;;6157374;23;20438;-70
2023/08/25 06:50:08;;;;;;;5.70;5.20;;;;;;;;;;6156838;23;20462;-69
2023/08/25 06:52:37;;;;;;;5.70;5.30;;;;;;;;;;6156813;23;20522;-69
2023/08/25 06:55:04;;;;;;;6.10;5.37;;;;;;;;;;6156667;23;20461;-68
2023/08/25 06:57:33;;;;;;;5.90;5.30;;;;;;;;;;6156726;23;20445;-70
2023/08/25 07:00:00;;;;;;;5.83;5.37;;;;;;;;;;6156987;23;20414;-71
2023/08/25 07:02:27;;;;;;;5.80;5.40;;;;;;;;;;6156818;23;20970;-71
2023/08/25 07:04:54;;;;;;;5.40;5.00;;;;;;;;;;6156813;23;20450;-71
2023/08/25 07:07:25;;;;;;;6.47;6.00;;;;;;;;;;6156926;23;20458;-71
2023/08/25 07:09:54;;;;;;;6.20;5.70;;;;;;;;;;6156881;23;20440;-71
2023/08/25 07:12:20;;;;;;;6.13;5.63;;;;;;;;;;6156703;23;20410;-68
2023/08/25 07:14:48;;;;;;;6.87;6.47;;;;;;;;;;6156670;23;20780;-69
2023/08/25 07:17:15;;;;;;;7.73;6.50;;;;;;;;;;6156570;23;20407;-72
2023/08/25 07:19:42;;;;;;;5.90;5.50;;;;;;;;;;6156741;23;20407;-83
2023/08/25 07:22:09;;;;;;;6.50;6.00;;;;;;;;;;6156652;23;20756;-66
2023/08/25 07:24:36;;;;;;;6.97;6.37;;;;;;;;;;6156632;23;20741;-69
2023/08/25 07:27:04;;;;;;;8.60;5.50;;;;;;;;;;6156643;23;20435;-68
2023/08/25 07:29:31;;;;;;;6.20;5.70;;;;;;;;;;6156531;23;20493;-66
2023/08/25 07:31:58;;;;;;;5.90;5.40;;;;;;;;;;6156535;23;20485;-73
2023/08/25 07:34:25;;;;;;;5.63;5.30;;;;;;;;;;6156028;23;20498;-74
2023/08/25 07:36:54;;;;;;;5.87;5.40;;;;;;;;;;6156725;23;20802;-73
2023/08/25 07:39:21;;;;;;;6.50;5.90;;;;;;;;;;6156765;23;20414;-70
2023/08/25 07:41:48;;;;;;;6.13;5.73;;;;;;;;;;6156758;23;20506;-68
2023/08/25 07:44:16;;;;;;;5.73;5.43;;;;;;;;;;6156537;23;20825;-66
2023/08/25 07:46:43;;;;;;;6.73;6.10;;;;;;;;;;6156770;23;20439;-69
2023/08/25 07:49:10;;;;;;;6.60;5.80;;;;;;;;;;6156481;23;20764;-64
2023/08/25 07:51:37;;;;;;;6.17;5.57;;;;;;;;;;6156668;23;20422;-69
2023/08/25 07:54:04;;;;;;;9.73;5.90;;;;;;;;;;6156542;23;20779;-77
2023/08/25 07:56:31;;;;;;;6.10;5.60;;;;;;;;;;6156618;23;20449;-72
2023/08/25 07:58:58;;;;;;;6.03;5.57;;;;;;;;;;6156486;23;20443;-73
2023/08/25 08:01:26;;;;;;;6.37;5.80;;;;;;;;;;6156480;23;20497;-67
2023/08/25 08:03:53;;;;;;;6.03;5.63;;;;;;;;;;6156309;23;20517;-72
2023/08/25 08:06:20;;;;;;;6.30;5.80;;;;;;;;;;6155993;23;20407;-71
2023/08/25 08:08:48;;;;;;;5.60;5.30;;;;;;;;;;6153976;23;20934;-72
2023/08/25 08:11:15;;;;;;;6.87;6.27;;;;;;;;;;6156145;23;20414;-67
2023/08/25 08:13:42;;;;;;;6.10;5.63;;;;;;;;;;6156080;23;20804;-65
2023/08/25 08:16:08;;;;;;;5.97;5.40;;;;;;;;;;6156036;23;20442;-66
2023/08/25 08:18:37;;;;;;;8.60;5.73;;;;;;;;;;6155919;23;20490;-68
2023/08/25 08:21:04;;;;;;;5.80;5.30;;;;;;;;;;6155788;23;20486;-70
2023/08/25 08:23:31;;;;;;;7.13;5.90;;;;;;;;;;6155655;23;20438;-70
2023/08/25 08:25:58;;;;;;;6.67;6.03;;;;;;;;;;6155471;23;20497;-68
2023/08/25 08:28:25;;;;;;;6.53;6.00;;;;;;;;;;6156023;23;20403;-69
2023/08/25 08:30:52;;;;;;;6.87;6.20;;;;;;;;;;6155757;23;20493;-67
2023/08/25 08:33:19;;;;;;;5.80;5.40;;;;;;;;;;6155808;23;20403;-68
2023/08/25 08:35:47;;;;;;;5.87;5.40;;;;;;;;;;6156097;23;20716;-68
2023/08/25 08:38:14;;;;;;;6.33;5.80;;;;;;;;;;6155664;23;20430;-71
2023/08/25 08:53:29;;;;;;;6.00;5.53;;;;;;;;;;6226086;23;20376;-58
2023/08/25 08:55:58;;;;;;;6.90;6.27;;;;;;;;;;6226138;23;20397;-58
2023/08/25 08:58:25;;;;;;;6.10;5.60;;;;;;;;;;6216209;23;20440;-58
2023/08/25 09:00:53;;;;;;;5.50;5.00;;;;;;;;;;6216360;23;20464;-58
2023/08/25 09:03:21;;;;;;;5.70;5.30;;;;;;;;;;6216484;23;20416;-58
2023/08/25 09:05:48;;;;;;;6.03;5.53;;;;;;;;;;6216132;23;20479;-58
2023/08/25 09:08:16;;;;;;;6.20;5.70;;;;;;;;;;6216107;23;20460;-58
2023/08/25 09:10:43;;;;;;;5.80;5.20;;;;;;;;;;6216180;23;20409;-58
2023/08/25 09:13:12;;;;;;;5.50;5.20;;;;;;;;;;6216283;23;20436;-58
2023/08/25 09:15:39;;;;;;;6.17;5.67;;;;;;;;;;6215995;23;20405;-58
2023/08/25 09:18:06;;;;;;;5.73;5.33;;;;;;;;;;6216159;23;20786;-58
2023/08/25 09:20:34;;;;;;;6.00;5.60;;;;;;;;;;6216037;23;20767;-58
2023/08/25 09:23:02;;;;;;;5.27;4.87;;;;;;;;;;6216223;23;20413;-58
2023/08/25 09:25:29;;;;;;;5.27;4.90;;;;;;;;;;6216019;23;20472;-58
2023/08/25 09:27:57;;;;;;;7.47;5.07;;;;;;;;;;6215910;23;20436;-58
2023/08/25 09:30:33;;;;;;;5.00;4.60;;;;;;;;;;6215893;23;20405;-58
2023/08/25 09:33:01;;;;;;;5.03;4.50;;;;;;;;;;6225851;23;20399;-58
2023/08/25 09:35:29;;;;;;;4.30;4.00;;;;;;;;;;6213343;23;20447;-58
2023/08/25 09:37:57;;;;;;;5.03;4.43;;;;;;;;;;6215449;23;20405;-58
2023/08/25 09:40:24;;;;;;;4.60;4.30;;;;;;;;;;6215440;23;20500;-58
2023/08/25 09:42:50;;;;;;;6.67;4.90;;;;;;;;;;6215333;23;20406;-58
2023/08/25 09:45:17;;;;;;;6.23;5.67;;;;;;;;;;6215063;23;20527;-58
2023/08/25 09:47:46;;;;;;;5.57;5.17;;;;;;;;;;6215545;23;20785;-59
2023/08/25 09:50:16;;;;;;;6.17;5.67;;;;;;;;;;6214960;23;20516;-58
2023/08/25 09:52:44;;;;;;;5.53;5.03;;;;;;;;;;6215332;23;20409;-59
2023/08/25 09:55:11;;;;;;;6.03;5.53;;;;;;;;;;6215267;23;20781;-58
2023/08/25 09:57:39;;;;;;;6.93;6.40;;;;;;;;;;6214876;23;20409;-59
2023/08/25 10:00:08;;;;;;;5.60;5.10;;;;;;;;;;6215273;23;20401;-59
2023/08/25 10:02:35;;;;;;;8.63;5.57;;;;;;;;;;6214943;23;20802;-59
2023/08/25 10:05:04;;;;;;;8.37;5.27;;;;;;;;;;6215282;23;20441;-59
2023/08/25 10:07:34;;;;;;;5.47;5.17;;;;;;;;;;6215115;23;20418;-58
2023/08/25 10:10:01;;;;;;;5.70;5.30;;;;;;;;;;6215061;23;20405;-59
2023/08/25 10:12:28;;;;;;;6.43;5.07;;;;;;;;;;6215324;23;20416;-59
2023/08/25 10:14:57;;;;;;;5.33;4.97;;;;;;;;;;6215474;23;20436;-59
2023/08/25 10:17:25;;;;;;;5.73;5.30;;;;;;;;;;6215656;23;20709;-59
2023/08/25 10:19:55;;;;;;;5.63;5.13;;;;;;;;;;6214195;23;20487;-59
2023/08/25 10:22:26;;;;;;;4.97;4.60;;;;;;;;;;6214741;23;20420;-59
2023/08/25 10:24:58;;;;;;;5.70;4.70;;;;;;;;;;6224182;23;20903;-59
2023/08/25 10:27:25;;;;;;;5.67;5.27;;;;;;;;;;6225119;23;20393;-59
2023/08/25 10:29:53;;;;;;;5.77;4.77;;;;;;;;;;6215478;23;20460;-60
2023/08/25 10:32:19;;;;;;;10.60;5.13;;;;;;;;;;6215730;23;20436;-59
2023/08/25 10:34:52;;;;;;;4.83;4.53;;;;;;;;;;6215592;23;20451;-59
2023/08/25 10:37:25;;;;;;;5.33;4.30;;;;;;;;;;6225633;23;20425;-59
2023/08/25 10:39:53;;;;;;;5.17;4.77;;;;;;;;;;6225507;23;20481;-59
2023/08/25 10:42:21;;;;;;;7.27;4.77;;;;;;;;;;6215588;23;20716;-59
2023/08/25 10:44:47;;;;;;;5.37;4.87;;;;;;;;;;6215429;23;20467;-59
2023/08/25 10:47:19;;;;;;;5.00;4.70;;;;;;;;;;6215467;23;20405;-59
2023/08/25 10:49:46;;;;;;;5.03;4.67;;;;;;;;;;6222172;23;20428;-59
2023/08/25 10:52:14;;;;;;;5.67;5.17;;;;;;;;;;6215527;23;20405;-59
2023/08/25 10:54:42;;;;;;;6.23;5.83;;;;;;;;;;6215334;23;20411;-59
2023/08/25 10:57:19;;;;;;;5.23;4.83;;;;;;;;;;6215433;23;20404;-59
2023/08/25 10:59:48;;;;;;;5.57;5.07;;;;;;;;;;6215474;23;20436;-59
2023/08/25 11:02:34;;;;;;;5.57;5.07;;;;;;;;;;6215241;23;20457;-59
2023/08/25 11:05:19;;;;;;;5.67;4.50;;;;;;;;;;6225536;23;20428;-60
2023/08/25 11:07:47;;;;;;;7.70;5.00;;;;;;;;;;6215633;23;20432;-59
2023/08/25 11:10:15;;;;;;;5.37;5.07;;;;;;;;;;6217252;23;20487;-59
2023/08/25 11:12:43;;;;;;;4.97;4.67;;;;;;;;;;6217232;23;20429;-59
2023/08/25 11:15:10;;;;;;;9.00;5.03;;;;;;;;;;6217360;23;20428;-59
2023/08/25 11:17:37;;;;;;;5.80;5.40;;;;;;;;;;6217236;23;20432;-59
2023/08/25 11:20:04;;;;;;;5.50;5.13;;;;;;;;;;6217322;23;20440;-59
2023/08/25 11:22:31;;;;;;;5.90;5.30;;;;;;;;;;6217134;23;20510;-59
2023/08/25 11:24:58;;;;;;;8.13;5.73;;;;;;;;;;6216952;23;20440;-59
2023/08/25 11:27:28;;;;;;;6.43;5.10;;;;;;;;;;6217285;23;20515;-59
2023/08/25 11:30:08;;;;;;;5.30;4.90;;;;;;;;;;6227002;23;20393;-59
2023/08/25 11:32:35;;;;;;;6.27;5.50;;;;;;;;;;6226883;23;20397;-59
2023/08/25 11:35:03;;;;;;;5.20;4.90;;;;;;;;;;6217228;23;20800;-59
2023/08/25 11:37:30;;;;;;;5.40;5.10;;;;;;;;;;6216807;23;20778;-59
2023/08/25 11:39:57;;;;;;;9.03;4.97;;;;;;;;;;6217114;23;20401;-59
2023/08/25 11:42:25;;;;;;;6.03;5.07;;;;;;;;;;6216874;23;20762;-60
2023/08/25 11:44:54;;;;;;;5.43;4.93;;;;;;;;;;6216367;23;20475;-60
2023/08/25 11:47:21;;;;;;;5.77;5.37;;;;;;;;;;6216950;23;20774;-59
2023/08/25 11:49:49;;;;;;;5.00;4.60;;;;;;;;;;6216639;23;20468;-59
2023/08/25 11:52:16;;;;;;;7.90;5.17;;;;;;;;;;6216679;23;20468;-59
2023/08/25 11:54:46;;;;;;;5.13;4.70;;;;;;;;;;6216846;23;20420;-59
2023/08/25 11:57:13;;;;;;;7.97;5.20;;;;;;;;;;6216915;23;20409;-59
2023/08/25 11:59:42;;;;;;;5.43;5.00;;;;;;;;;;6216866;23;20405;-59
2023/08/25 12:02:10;;;;;;;6.47;5.20;;;;;;;;;;6216419;23;20901;-59
2023/08/25 12:04:37;;;;;;;4.70;4.30;;;;;;;;;;6216657;23;20762;-59
2023/08/25 12:07:04;;;;;;;5.73;5.17;;;;;;;;;;6216843;23;20492;-59
2023/08/25 12:09:31;;;;;;;4.70;4.40;;;;;;;;;;6216731;23;20437;-59
2023/08/25 12:11:58;;;;;;;5.03;4.53;;;;;;;;;;6216627;23;20409;-59
2023/08/25 12:14:25;;;;;;;4.60;4.30;;;;;;;;;;6216660;23;20437;-59
2023/08/25 12:16:52;;;;;;;4.77;4.57;;;;;;;;;;6216570;23;20714;-59
2023/08/25 12:19:23;;;;;;;4.83;4.40;;;;;;;;;;6216513;23;20452;-59
2023/08/25 12:21:51;;;;;;;5.53;4.60;;;;;;;;;;6226402;23;20452;-59
2023/08/25 12:24:18;;;;;;;5.40;5.00;;;;;;;;;;6216575;23;20499;-59
2023/08/25 12:26:45;;;;;;;6.07;4.57;;;;;;;;;;6216543;23;20468;-59
2023/08/25 12:29:12;;;;;;;5.07;4.40;;;;;;;;;;6216951;23;20943;-59
2023/08/25 12:31:39;;;;;;;4.60;4.20;;;;;;;;;;6216120;23;20447;-59
2023/08/25 12:34:07;;;;;;;5.13;4.83;;;;;;;;;;6216477;23;20459;-59
2023/08/25 12:36:36;;;;;;;5.87;4.93;;;;;;;;;;6216539;23;20417;-59
2023/08/25 12:39:04;;;;;;;4.80;4.50;;;;;;;;;;6216354;23;20434;-60
2023/08/25 12:41:31;;;;;;;6.70;4.60;;;;;;;;;;6216372;23;20418;-59
2023/08/25 12:43:58;;;;;;;5.07;4.67;;;;;;;;;;6216355;23;20463;-59
2023/08/25 12:46:25;;;;;;;4.53;4.23;;;;;;;;;;6216298;23;20527;-59
2023/08/25 12:48:52;;;;;;;5.57;5.07;;;;;;;;;;6216474;23;20409;-59
2023/08/25 12:51:19;;;;;;;4.30;4.00;;;;;;;;;;6215973;23;20452;-59
2023/08/25 12:53:47;;;;;;;5.30;4.50;;;;;;;;;;6216288;23;20488;-59
2023/08/25 12:56:14;;;;;;;5.03;4.73;;;;;;;;;;6216212;23;20408;-59
2023/08/25 12:58:41;;;;;;;6.90;4.30;;;;;;;;;;6216253;23;20401;-59
2023/08/25 13:01:09;;;;;;;4.60;4.20;;;;;;;;;;6216247;23;20401;-59
2023/08/25 13:03:36;;;;;;;4.40;4.13;;;;;;;;;;6216320;23;20491;-59
2023/08/25 13:06:03;;;;;;;4.53;4.23;;;;;;;;;;6216214;23;20476;-59
2023/08/25 13:08:30;;;;;;;4.30;4.00;;;;;;;;;;6216253;23;20405;-59
2023/08/25 13:10:59;;;;;;;7.33;4.03;;;;;;;;;;6216297;23;20405;-59
2023/08/25 13:13:26;;;;;;;3.80;3.60;;;;;;;;;;6216127;23;20487;-59
2023/08/25 13:15:53;;;;;;;7.07;3.70;;;;;;;;;;6215711;23;20405;-59
2023/08/25 13:18:20;;;;;;;8.13;4.00;;;;;;;;;;6216129;23;20436;-59
2023/08/25 13:20:47;;;;;;;4.83;3.10;;;;;;;;;;6216197;23;20405;-59
2023/08/25 13:23:13;;;;;;;3.77;3.47;;;;;;;;;;6216145;23;20405;-59
2023/08/25 13:25:41;;;;;;;6.10;4.10;;;;;;;;;;6215597;23;20947;-59
2023/08/25 13:28:10;;;;;;;4.20;3.80;;;;;;;;;;6216008;23;20492;-59
2023/08/25 13:30:36;;;;;;;7.03;4.20;;;;;;;;;;6215954;23;20491;-59
2023/08/25 13:33:03;;;;;;;4.30;4.00;;;;;;;;;;6215649;23;20433;-59
2023/08/25 13:35:30;;;;;;;12.13;4.70;;;;;;;;;;6216062;23;20409;-59
2023/08/25 13:37:57;;;;;;;4.57;4.27;;;;;;;;;;6216038;23;20436;-59
2023/08/25 13:40:24;;;;;;;4.80;4.40;;;;;;;;;;6216049;23;20492;-59
2023/08/25 13:42:51;;;;;;;5.30;4.90;;;;;;;;;;6215893;23;20437;-59
2023/08/25 13:45:19;;;;;;;5.00;4.47;;;;;;;;;;6215762;23;20514;-59
2023/08/25 13:47:46;;;;;;;4.63;4.23;;;;;;;;;;6215896;23;20404;-60
2023/08/25 13:50:13;;;;;;;6.47;4.60;;;;;;;;;;6215577;23;20436;-62
2023/08/25 13:52:40;;;;;;;5.47;4.97;;;;;;;;;;6215784;23;20496;-59
2023/08/25 13:55:08;;;;;;;5.07;4.63;;;;;;;;;;6215865;23;20433;-59
2023/08/25 13:57:37;;;;;;;5.23;4.80;;;;;;;;;;6215968;23;20729;-59
2023/08/25 14:00:05;;;;;;;5.70;5.13;;;;;;;;;;6215646;23;20496;-59
2023/08/25 14:02:33;;;;;;;5.50;5.00;;;;;;;;;;6215802;23;20484;-59
2023/08/25 14:05:00;;;;;;;7.17;4.83;;;;;;;;;;6215550;23;20517;-59
2023/08/25 14:07:27;;;;;;;5.20;4.83;;;;;;;;;;6215870;23;20512;-59
2023/08/25 14:09:54;;;;;;;7.63;5.47;;;;;;;;;;6215842;23;20487;-59
2023/08/25 14:12:22;;;;;;;5.20;4.80;;;;;;;;;;6215693;23;20405;-59
2023/08/25 14:14:48;;;;;;;5.87;5.37;;;;;;;;;;6215553;23;20805;-59
2023/08/25 14:17:15;;;;;;;5.30;4.80;;;;;;;;;;6215719;23;20496;-59
2023/08/25 14:19:44;;;;;;;4.90;4.53;;;;;;;;;;6215699;23;20491;-59
2023/08/25 14:22:10;;;;;;;5.80;5.30;;;;;;;;;;6215720;23;20491;-59
2023/08/25 14:24:37;;;;;;;6.07;5.47;;;;;;;;;;6215792;23;20437;-59
2023/08/25 14:27:05;;;;;;;5.47;4.60;;;;;;;;;;6215773;23;20523;-59
2023/08/25 14:29:31;;;;;;;4.27;3.90;;;;;;;;;;6215669;23;20411;-59
2023/08/25 14:31:58;;;;;;;4.73;4.30;;;;;;;;;;6215682;23;20405;-59
2023/08/25 14:34:25;;;;;;;7.43;4.90;;;;;;;;;;6215701;23;20447;-59
2023/08/25 14:36:54;;;;;;;5.27;4.87;;;;;;;;;;6215637;23;20404;-59
2023/08/25 14:39:21;;;;;;;5.10;4.80;;;;;;;;;;6215635;23;20493;-59
2023/08/25 14:41:47;;;;;;;4.87;4.47;;;;;;;;;;6215667;23;20404;-59
2023/08/25 14:44:14;;;;;;;6.60;6.10;;;;;;;;;;6216397;23;20919;-59
2023/08/25 14:46:41;;;;;;;6.10;4.80;;;;;;;;;;6217439;23;20612;-59
2023/08/25 14:49:09;;;;;;;6.83;5.20;;;;;;;;;;6217378;23;20404;-59
2023/08/25 14:51:36;;;;;;;5.43;4.80;;;;;;;;;;6227568;23;20393;-59
2023/08/25 14:54:04;;;;;;;6.10;5.70;;;;;;;;;;6217362;23;20472;-59
2023/08/25 14:56:31;;;;;;;6.33;5.57;;;;;;;;;;6217330;23;20432;-60
2023/08/25 14:58:58;;;;;;;5.63;5.30;;;;;;;;;;6217351;23;20437;-59